Midway, Kentucky
Current Conditions -  °F | °C
As of 12:54 AM on Saturday 29 Nov 2014 (Local Time) from KLEX Reporting Station
Clear Clear  
Wind Chill: 25°   Ceiling: Unl
Heat Index: 34°   Visibility: 10mi
Dew Point: 20°   Wind: 12mph
Humidity: 56%   Direction: 170°S
Pressure: 30.09"   Gusts: NA
Location:  38.15°N, 84.68°W
Report Text: KLEX 290554Z 17010KT 10SM CLR 01/M07 A3009 RMK AO2 SLP195 T00111067 10017 21006 58006
Loading
Personal Weather Stations






























Interactive Weather Map New forecast layout! Learn more

10-Day Weather Forecast

Advertisements
Track Severe Weather on mobile